sensor_id;sensor_type;location;lat;lon;timestamp;pressure;altitude;pressure_sealevel;temperature;humidity
7802;BME280;3945;48.952;9.506;2022-07-17T00:02:11;98794.91;;;16.91;61.02
7802;BME280;3945;48.952;9.506;2022-07-17T00:04:37;98795.97;;;16.90;61.60
7802;BME280;3945;48.952;9.506;2022-07-17T00:07:04;98801.34;;;16.90;62.04
7802;BME280;3945;48.952;9.506;2022-07-17T00:09:30;98794.09;;;16.86;61.79
7802;BME280;3945;48.952;9.506;2022-07-17T00:11:56;98799.38;;;16.75;61.76
7802;BME280;3945;48.952;9.506;2022-07-17T00:14:23;98792.63;;;16.73;62.07
7802;BME280;3945;48.952;9.506;2022-07-17T00:16:51;98791.81;;;16.72;62.35
7802;BME280;3945;48.952;9.506;2022-07-17T00:19:18;98795.53;;;16.61;62.83
7802;BME280;3945;48.952;9.506;2022-07-17T00:21:45;98793.59;;;16.57;62.96
7802;BME280;3945;48.952;9.506;2022-07-17T00:24:12;98791.91;;;16.51;63.31
7802;BME280;3945;48.952;9.506;2022-07-17T00:26:44;98792.44;;;16.48;63.75
7802;BME280;3945;48.952;9.506;2022-07-17T00:29:11;98790.50;;;16.43;63.59
7802;BME280;3945;48.952;9.506;2022-07-17T00:31:37;98796.16;;;16.42;63.60
7802;BME280;3945;48.952;9.506;2022-07-17T00:34:05;98796.38;;;16.35;63.75
7802;BME280;3945;48.952;9.506;2022-07-17T00:36:31;98797.94;;;16.31;63.92
7802;BME280;3945;48.952;9.506;2022-07-17T00:38:58;98795.00;;;16.32;63.64
7802;BME280;3945;48.952;9.506;2022-07-17T00:41:24;98796.63;;;16.33;62.87
7802;BME280;3945;48.952;9.506;2022-07-17T00:43:50;98802.50;;;16.30;62.92
7802;BME280;3945;48.952;9.506;2022-07-17T00:46:17;98804.34;;;16.25;63.15
7802;BME280;3945;48.952;9.506;2022-07-17T00:48:43;98811.75;;;16.13;64.18
7802;BME280;3945;48.952;9.506;2022-07-17T00:51:11;98803.38;;;16.09;64.62
7802;BME280;3945;48.952;9.506;2022-07-17T00:53:37;98806.88;;;16.10;64.50
7802;BME280;3945;48.952;9.506;2022-07-17T00:56:05;98805.31;;;16.14;64.86
7802;BME280;3945;48.952;9.506;2022-07-17T00:58:34;98799.81;;;15.98;64.77
7802;BME280;3945;48.952;9.506;2022-07-17T01:01:02;98800.81;;;15.92;64.65
7802;BME280;3945;48.952;9.506;2022-07-17T01:03:31;98800.41;;;15.79;65.22
7802;BME280;3945;48.952;9.506;2022-07-17T01:05:58;98800.56;;;15.67;65.57
7802;BME280;3945;48.952;9.506;2022-07-17T01:08:26;98795.38;;;15.60;65.35
7802;BME280;3945;48.952;9.506;2022-07-17T01:10:52;98804.03;;;15.46;66.54
7802;BME280;3945;48.952;9.506;2022-07-17T01:13:18;98807.97;;;15.38;66.55
7802;BME280;3945;48.952;9.506;2022-07-17T01:15:45;98814.53;;;15.26;67.25
7802;BME280;3945;48.952;9.506;2022-07-17T01:18:12;98806.91;;;15.17;67.32
7802;BME280;3945;48.952;9.506;2022-07-17T01:20:39;98801.41;;;15.07;68.36
7802;BME280;3945;48.952;9.506;2022-07-17T01:23:07;98807.75;;;15.01;68.53
7802;BME280;3945;48.952;9.506;2022-07-17T01:25:34;98811.59;;;14.89;69.43
7802;BME280;3945;48.952;9.506;2022-07-17T01:28:00;98810.91;;;14.76;69.79
7802;BME280;3945;48.952;9.506;2022-07-17T01:30:27;98820.56;;;14.61;70.24
7802;BME280;3945;48.952;9.506;2022-07-17T01:32:53;98811.38;;;14.57;70.58
7802;BME280;3945;48.952;9.506;2022-07-17T01:35:20;98814.81;;;14.52;70.91
7802;BME280;3945;48.952;9.506;2022-07-17T01:37:46;98816.91;;;14.50;70.68
7802;BME280;3945;48.952;9.506;2022-07-17T01:40:15;98825.34;;;14.42;71.41
7802;BME280;3945;48.952;9.506;2022-07-17T01:42:43;98820.69;;;14.37;71.69
7802;BME280;3945;48.952;9.506;2022-07-17T01:45:10;98818.50;;;14.34;71.35
7802;BME280;3945;48.952;9.506;2022-07-17T01:47:36;98814.53;;;14.37;71.11
7802;BME280;3945;48.952;9.506;2022-07-17T01:50:03;98814.31;;;14.38;71.32
7802;BME280;3945;48.952;9.506;2022-07-17T01:52:30;98816.78;;;14.40;71.59
7802;BME280;3945;48.952;9.506;2022-07-17T01:54:56;98819.19;;;14.41;71.21
7802;BME280;3945;48.952;9.506;2022-07-17T01:57:24;98817.88;;;14.44;71.26
7802;BME280;3945;48.952;9.506;2022-07-17T01:59:50;98813.59;;;14.43;71.35
7802;BME280;3945;48.952;9.506;2022-07-17T02:02:16;98813.28;;;14.39;71.50
7802;BME280;3945;48.952;9.506;2022-07-17T02:04:43;98815.94;;;14.39;71.30
7802;BME280;3945;48.952;9.506;2022-07-17T02:07:10;98814.22;;;14.33;72.00
7802;BME280;3945;48.952;9.506;2022-07-17T02:09:36;98807.72;;;14.29;72.26
7802;BME280;3945;48.952;9.506;2022-07-17T02:12:03;98803.63;;;14.27;71.97
7802;BME280;3945;48.952;9.506;2022-07-17T02:14:31;98814.03;;;14.23;71.82
7802;BME280;3945;48.952;9.506;2022-07-17T02:16:58;98797.31;;;14.16;72.25
7802;BME280;3945;48.952;9.506;2022-07-17T02:19:24;98806.63;;;14.14;72.28
7802;BME280;3945;48.952;9.506;2022-07-17T02:21:51;98804.63;;;14.04;72.40
7802;BME280;3945;48.952;9.506;2022-07-17T02:24:18;98802.09;;;13.97;72.80
7802;BME280;3945;48.952;9.506;2022-07-17T02:26:44;98798.50;;;13.92;73.54
7802;BME280;3945;48.952;9.506;2022-07-17T02:29:10;98801.09;;;13.87;73.55
7802;BME280;3945;48.952;9.506;2022-07-17T02:31:38;98805.78;;;13.80;73.92
7802;BME280;3945;48.952;9.506;2022-07-17T02:34:04;98800.06;;;13.76;73.57
7802;BME280;3945;48.952;9.506;2022-07-17T02:36:31;98799.03;;;13.77;73.85
7802;BME280;3945;48.952;9.506;2022-07-17T02:38:57;98800.34;;;13.75;74.05
7802;BME280;3945;48.952;9.506;2022-07-17T02:41:24;98797.53;;;13.69;73.87
7802;BME280;3945;48.952;9.506;2022-07-17T02:43:50;98795.44;;;13.72;74.12
7802;BME280;3945;48.952;9.506;2022-07-17T02:46:16;98792.94;;;13.65;74.01
7802;BME280;3945;48.952;9.506;2022-07-17T02:48:44;98787.56;;;13.65;74.42
7802;BME280;3945;48.952;9.506;2022-07-17T02:51:11;98788.84;;;13.62;74.58
7802;BME280;3945;48.952;9.506;2022-07-17T02:53:38;98787.50;;;13.60;74.24
7802;BME280;3945;48.952;9.506;2022-07-17T02:56:04;98793.31;;;13.57;74.61
7802;BME280;3945;48.952;9.506;2022-07-17T02:58:31;98785.78;;;13.54;74.23
7802;BME280;3945;48.952;9.506;2022-07-17T03:00:57;98784.03;;;13.48;74.80
7802;BME280;3945;48.952;9.506;2022-07-17T03:03:24;98781.34;;;13.48;75.16
7802;BME280;3945;48.952;9.506;2022-07-17T03:05:51;98773.91;;;13.50;75.69
7802;BME280;3945;48.952;9.506;2022-07-17T03:08:18;98779.75;;;13.47;75.26
7802;BME280;3945;48.952;9.506;2022-07-17T03:10:44;98779.19;;;13.45;75.46
7802;BME280;3945;48.952;9.506;2022-07-17T03:13:10;98783.13;;;13.42;75.64
7802;BME280;3945;48.952;9.506;2022-07-17T03:15:37;98781.84;;;13.45;75.23
7802;BME280;3945;48.952;9.506;2022-07-17T03:18:03;98777.09;;;13.47;75.31
7802;BME280;3945;48.952;9.506;2022-07-17T03:20:29;98781.63;;;13.46;75.28
7802;BME280;3945;48.952;9.506;2022-07-17T03:22:57;98784.03;;;13.48;74.77
7802;BME280;3945;48.952;9.506;2022-07-17T03:25:23;98780.00;;;13.45;74.77
7802;BME280;3945;48.952;9.506;2022-07-17T03:27:50;98786.16;;;13.46;75.21
7802;BME280;3945;48.952;9.506;2022-07-17T03:30:16;98793.00;;;13.42;75.01
7802;BME280;3945;48.952;9.506;2022-07-17T03:32:42;98797.81;;;13.40;75.01
7802;BME280;3945;48.952;9.506;2022-07-17T03:35:09;98800.13;;;13.36;75.11
7802;BME280;3945;48.952;9.506;2022-07-17T03:37:35;98802.47;;;13.33;75.79
7802;BME280;3945;48.952;9.506;2022-07-17T03:40:04;98800.72;;;13.26;75.70
7802;BME280;3945;48.952;9.506;2022-07-17T03:42:31;98797.94;;;13.21;75.91
7802;BME280;3945;48.952;9.506;2022-07-17T03:44:57;98802.16;;;13.17;75.94
7802;BME280;3945;48.952;9.506;2022-07-17T03:47:23;98799.94;;;13.14;75.81
7802;BME280;3945;48.952;9.506;2022-07-17T03:49:50;98790.63;;;13.05;76.32
7802;BME280;3945;48.952;9.506;2022-07-17T03:52:16;98796.69;;;13.01;76.49
7802;BME280;3945;48.952;9.506;2022-07-17T03:54:42;98793.53;;;12.92;76.46
7802;BME280;3945;48.952;9.506;2022-07-17T03:57:10;98803.41;;;12.91;77.02
7802;BME280;3945;48.952;9.506;2022-07-17T03:59:36;98807.38;;;12.89;77.26
7802;BME280;3945;48.952;9.506;2022-07-17T04:02:03;98805.88;;;12.81;77.11
7802;BME280;3945;48.952;9.506;2022-07-17T04:04:29;98802.63;;;12.79;77.36
7802;BME280;3945;48.952;9.506;2022-07-17T04:06:56;98801.22;;;12.77;77.14
7802;BME280;3945;48.952;9.506;2022-07-17T04:09:22;98803.66;;;12.78;77.40
7802;BME280;3945;48.952;9.506;2022-07-17T04:11:48;98809.22;;;12.77;77.52
7802;BME280;3945;48.952;9.506;2022-07-17T04:14:16;98800.66;;;12.75;77.92
7802;BME280;3945;48.952;9.506;2022-07-17T04:16:42;98810.88;;;12.78;77.69
7802;BME280;3945;48.952;9.506;2022-07-17T04:19:09;98809.38;;;12.82;77.69
7802;BME280;3945;48.952;9.506;2022-07-17T04:21:35;98807.84;;;12.86;77.80
7802;BME280;3945;48.952;9.506;2022-07-17T04:24:02;98807.38;;;12.89;77.69
7802;BME280;3945;48.952;9.506;2022-07-17T04:26:28;98802.06;;;12.89;77.22
7802;BME280;3945;48.952;9.506;2022-07-17T04:28:55;98806.31;;;12.90;77.56
7802;BME280;3945;48.952;9.506;2022-07-17T04:31:22;98812.84;;;12.94;77.29
7802;BME280;3945;48.952;9.506;2022-07-17T04:33:49;98816.19;;;13.01;77.45
7802;BME280;3945;48.952;9.506;2022-07-17T04:36:17;98816.09;;;12.96;77.28
7802;BME280;3945;48.952;9.506;2022-07-17T04:38:44;98815.38;;;13.01;77.87
7802;BME280;3945;48.952;9.506;2022-07-17T04:41:10;98812.81;;;13.06;77.56
7802;BME280;3945;48.952;9.506;2022-07-17T04:43:36;98808.88;;;13.08;77.40
7802;BME280;3945;48.952;9.506;2022-07-17T04:46:03;98814.53;;;13.12;76.96
7802;BME280;3945;48.952;9.506;2022-07-17T04:48:30;98813.06;;;13.16;76.58
7802;BME280;3945;48.952;9.506;2022-07-17T04:50:57;98822.00;;;13.21;76.88
7802;BME280;3945;48.952;9.506;2022-07-17T04:53:23;98818.88;;;13.24;77.03
7802;BME280;3945;48.952;9.506;2022-07-17T04:55:49;98817.69;;;13.32;77.57
7802;BME280;3945;48.952;9.506;2022-07-17T04:58:16;98819.66;;;13.37;78.21
7802;BME280;3945;48.952;9.506;2022-07-17T05:00:43;98817.28;;;13.40;77.62
7802;BME280;3945;48.952;9.506;2022-07-17T05:03:10;98817.97;;;13.47;78.02
7802;BME280;3945;48.952;9.506;2022-07-17T05:05:38;98819.72;;;13.53;78.68
7802;BME280;3945;48.952;9.506;2022-07-17T05:08:05;98822.03;;;13.61;79.26
7802;BME280;3945;48.952;9.506;2022-07-17T05:10:31;98819.75;;;13.70;78.89
7802;BME280;3945;48.952;9.506;2022-07-17T05:12:58;98825.56;;;13.79;78.86
7802;BME280;3945;48.952;9.506;2022-07-17T05:15:24;98820.94;;;13.91;77.97
7802;BME280;3945;48.952;9.506;2022-07-17T05:17:50;98818.94;;;13.98;78.22
7802;BME280;3945;48.952;9.506;2022-07-17T05:20:17;98819.38;;;14.06;77.77
7802;BME280;3945;48.952;9.506;2022-07-17T05:22:44;98812.34;;;14.17;77.25
7802;BME280;3945;48.952;9.506;2022-07-17T05:25:11;98813.13;;;14.34;75.22
7802;BME280;3945;48.952;9.506;2022-07-17T05:27:37;98814.31;;;14.55;75.73
7802;BME280;3945;48.952;9.506;2022-07-17T05:30:04;98811.97;;;14.75;75.67
7802;BME280;3945;48.952;9.506;2022-07-17T05:32:30;98816.22;;;14.93;75.75
7802;BME280;3945;48.952;9.506;2022-07-17T05:34:56;98820.50;;;15.11;74.70
7802;BME280;3945;48.952;9.506;2022-07-17T05:37:23;98814.81;;;15.29;73.95
7802;BME280;3945;48.952;9.506;2022-07-17T05:39:50;98810.06;;;15.53;73.46
7802;BME280;3945;48.952;9.506;2022-07-17T05:42:17;98809.22;;;15.74;72.35
7802;BME280;3945;48.952;9.506;2022-07-17T05:44:43;98811.88;;;15.96;72.50
7802;BME280;3945;48.952;9.506;2022-07-17T05:47:09;98805.94;;;16.21;70.97
7802;BME280;3945;48.952;9.506;2022-07-17T05:49:36;98808.00;;;16.46;66.74
7802;BME280;3945;48.952;9.506;2022-07-17T05:52:02;98814.41;;;16.71;64.12
7802;BME280;3945;48.952;9.506;2022-07-17T05:54:28;98812.44;;;16.99;62.84
7802;BME280;3945;48.952;9.506;2022-07-17T05:56:56;98820.38;;;17.26;61.88
7802;BME280;3945;48.952;9.506;2022-07-17T05:59:22;98818.06;;;17.49;60.19
7802;BME280;3945;48.952;9.506;2022-07-17T06:01:49;98812.53;;;17.76;59.85
7802;BME280;3945;48.952;9.506;2022-07-17T06:04:15;98809.63;;;18.03;59.04
7802;BME280;3945;48.952;9.506;2022-07-17T06:06:41;98811.53;;;18.33;58.83
7802;BME280;3945;48.952;9.506;2022-07-17T06:09:08;98825.06;;;18.63;57.54
7802;BME280;3945;48.952;9.506;2022-07-17T06:11:34;98828.78;;;18.88;56.42
7802;BME280;3945;48.952;9.506;2022-07-17T06:14:02;98823.88;;;19.10;55.93
7802;BME280;3945;48.952;9.506;2022-07-17T06:16:29;98823.53;;;19.32;54.69
7802;BME280;3945;48.952;9.506;2022-07-17T06:18:55;98823.53;;;19.52;53.82
7802;BME280;3945;48.952;9.506;2022-07-17T06:21:21;98821.53;;;19.73;53.83
7802;BME280;3945;48.952;9.506;2022-07-17T06:23:48;98822.50;;;19.92;52.85
7802;BME280;3945;48.952;9.506;2022-07-17T06:26:14;98833.75;;;20.09;53.25
7802;BME280;3945;48.952;9.506;2022-07-17T06:28:40;98825.75;;;20.38;52.03
7802;BME280;3945;48.952;9.506;2022-07-17T06:31:08;98837.81;;;21.09;50.80
7802;BME280;3945;48.952;9.506;2022-07-17T06:33:34;98831.78;;;21.83;49.06
7802;BME280;3945;48.952;9.506;2022-07-17T06:36:02;98825.47;;;22.63;47.13
7802;BME280;3945;48.952;9.506;2022-07-17T06:38:28;98829.25;;;23.26;46.48
7802;BME280;3945;48.952;9.506;2022-07-17T06:40:54;98828.81;;;23.88;43.95
7802;BME280;3945;48.952;9.506;2022-07-17T06:43:21;98825.28;;;24.37;43.62
7802;BME280;3945;48.952;9.506;2022-07-17T06:45:47;98831.50;;;24.82;42.50
7802;BME280;3945;48.952;9.506;2022-07-17T06:48:17;98818.63;;;25.27;42.99
7802;BME280;3945;48.952;9.506;2022-07-17T06:50:44;98833.03;;;25.67;42.74
7802;BME280;3945;48.952;9.506;2022-07-17T06:53:10;98837.09;;;25.95;41.45
7802;BME280;3945;48.952;9.506;2022-07-17T06:55:36;98824.94;;;26.19;41.18
7802;BME280;3945;48.952;9.506;2022-07-17T06:58:03;98825.72;;;26.54;39.64
7802;BME280;3945;48.952;9.506;2022-07-17T07:00:30;98819.25;;;26.84;38.98
7802;BME280;3945;48.952;9.506;2022-07-17T07:02:56;98819.69;;;27.12;38.72
7802;BME280;3945;48.952;9.506;2022-07-17T07:05:24;98823.09;;;27.38;38.71
7802;BME280;3945;48.952;9.506;2022-07-17T07:07:50;98827.22;;;27.53;38.05
7802;BME280;3945;48.952;9.506;2022-07-17T07:10:16;98837.25;;;27.78;37.67
7802;BME280;3945;48.952;9.506;2022-07-17T07:12:43;98836.72;;;28.06;37.61
7802;BME280;3945;48.952;9.506;2022-07-17T07:15:09;98835.56;;;28.36;37.82
7802;BME280;3945;48.952;9.506;2022-07-17T07:17:36;98836.50;;;28.73;36.29
7802;BME280;3945;48.952;9.506;2022-07-17T07:20:02;98841.03;;;28.90;36.50
7802;BME280;3945;48.952;9.506;2022-07-17T07:22:31;98837.34;;;29.31;33.87
7802;BME280;3945;48.952;9.506;2022-07-17T07:24:57;98838.16;;;29.56;35.54
7802;BME280;3945;48.952;9.506;2022-07-17T07:27:24;98841.25;;;29.66;35.64
7802;BME280;3945;48.952;9.506;2022-07-17T07:29:50;98837.09;;;30.09;34.54
7802;BME280;3945;48.952;9.506;2022-07-17T07:32:16;98838.88;;;30.29;33.71
7802;BME280;3945;48.952;9.506;2022-07-17T07:34:43;98838.41;;;30.67;34.43
7802;BME280;3945;48.952;9.506;2022-07-17T07:37:09;98836.81;;;31.10;34.67
7802;BME280;3945;48.952;9.506;2022-07-17T07:39:37;98832.72;;;31.35;33.48
7802;BME280;3945;48.952;9.506;2022-07-17T07:42:03;98830.94;;;31.58;33.04
7802;BME280;3945;48.952;9.506;2022-07-17T07:44:30;98833.09;;;31.65;32.35
7802;BME280;3945;48.952;9.506;2022-07-17T07:46:56;98828.22;;;31.93;32.01
7802;BME280;3945;48.952;9.506;2022-07-17T07:49:23;98832.53;;;32.26;32.69
7802;BME280;3945;48.952;9.506;2022-07-17T07:51:49;98838.53;;;32.31;32.31
7802;BME280;3945;48.952;9.506;2022-07-17T07:54:15;98832.00;;;32.39;31.79
7802;BME280;3945;48.952;9.506;2022-07-17T07:56:43;98838.97;;;32.52;30.54
7802;BME280;3945;48.952;9.506;2022-07-17T07:59:09;98835.25;;;32.64;31.61
7802;BME280;3945;48.952;9.506;2022-07-17T08:01:36;98844.72;;;32.63;30.97
7802;BME280;3945;48.952;9.506;2022-07-17T08:04:02;98842.47;;;32.69;31.62
7802;BME280;3945;48.952;9.506;2022-07-17T08:06:29;98836.31;;;32.98;30.41
7802;BME280;3945;48.952;9.506;2022-07-17T08:08:55;98832.97;;;33.31;30.95
7802;BME280;3945;48.952;9.506;2022-07-17T08:11:21;98833.28;;;33.72;28.61
7802;BME280;3945;48.952;9.506;2022-07-17T08:13:51;98837.06;;;33.90;28.57
7802;BME280;3945;48.952;9.506;2022-07-17T08:16:17;98833.88;;;34.14;28.02
7802;BME280;3945;48.952;9.506;2022-07-17T08:18:43;98826.59;;;34.32;28.99
7802;BME280;3945;48.952;9.506;2022-07-17T08:21:10;98829.25;;;34.55;27.87
7802;BME280;3945;48.952;9.506;2022-07-17T08:23:36;98823.59;;;34.44;29.81
7802;BME280;3945;48.952;9.506;2022-07-17T08:26:03;98831.09;;;34.44;28.49
7802;BME280;3945;48.952;9.506;2022-07-17T08:28:30;98824.13;;;34.24;29.85
7802;BME280;3945;48.952;9.506;2022-07-17T08:30:57;98836.13;;;34.08;29.21
7802;BME280;3945;48.952;9.506;2022-07-17T08:33:24;98830.31;;;34.14;31.19
7802;BME280;3945;48.952;9.506;2022-07-17T08:35:50;98827.94;;;34.42;29.23
7802;BME280;3945;48.952;9.506;2022-07-17T08:38:16;98825.16;;;34.75;28.02
7802;BME280;3945;48.952;9.506;2022-07-17T08:40:43;98822.44;;;34.79;28.41
7802;BME280;3945;48.952;9.506;2022-07-17T08:43:13;98836.72;;;34.84;25.11
7802;BME280;3945;48.952;9.506;2022-07-17T08:45:39;98825.38;;;34.97;26.98
7802;BME280;3945;48.952;9.506;2022-07-17T08:48:07;98828.97;;;35.01;26.21
7802;BME280;3945;48.952;9.506;2022-07-17T08:50:37;98827.09;;;35.12;25.60
7802;BME280;3945;48.952;9.506;2022-07-17T08:53:04;98829.69;;;34.57;24.54
7802;BME280;3945;48.952;9.506;2022-07-17T08:55:30;98838.47;;;34.33;24.84
7802;BME280;3945;48.952;9.506;2022-07-17T08:57:57;98836.22;;;34.42;26.27
7802;BME280;3945;48.952;9.506;2022-07-17T09:00:25;98828.66;;;34.39;25.02
7802;BME280;3945;48.952;9.506;2022-07-17T09:02:52;98833.44;;;34.42;24.79
7802;BME280;3945;48.952;9.506;2022-07-17T09:05:21;98832.84;;;34.59;25.63
7802;BME280;3945;48.952;9.506;2022-07-17T09:07:47;98837.00;;;34.42;26.69
7802;BME280;3945;48.952;9.506;2022-07-17T09:10:14;98838.63;;;34.47;23.84
7802;BME280;3945;48.952;9.506;2022-07-17T09:12:40;98831.94;;;34.81;26.93
7802;BME280;3945;48.952;9.506;2022-07-17T09:15:13;98832.72;;;34.78;24.73
7802;BME280;3945;48.952;9.506;2022-07-17T09:17:46;98830.16;;;35.00;26.63
7802;BME280;3945;48.952;9.506;2022-07-17T09:20:13;98833.19;;;34.88;24.33
7802;BME280;3945;48.952;9.506;2022-07-17T09:22:40;98829.53;;;34.76;25.54
7802;BME280;3945;48.952;9.506;2022-07-17T09:25:08;98830.03;;;34.89;25.75
7802;BME280;3945;48.952;9.506;2022-07-17T09:27:34;98830.91;;;34.97;24.60
7802;BME280;3945;48.952;9.506;2022-07-17T09:30:02;98827.69;;;34.91;25.15
7802;BME280;3945;48.952;9.506;2022-07-17T09:32:30;98826.66;;;35.06;24.12
7802;BME280;3945;48.952;9.506;2022-07-17T09:34:57;98825.28;;;35.30;24.60
7802;BME280;3945;48.952;9.506;2022-07-17T09:37:24;98821.13;;;35.10;23.41
7802;BME280;3945;48.952;9.506;2022-07-17T09:39:52;98828.47;;;34.55;22.52
7802;BME280;3945;48.952;9.506;2022-07-17T09:42:23;98833.09;;;34.77;24.86
7802;BME280;3945;48.952;9.506;2022-07-17T09:45:00;98825.75;;;34.95;23.62
7802;BME280;3945;48.952;9.506;2022-07-17T09:47:27;98819.66;;;35.19;24.23
7802;BME280;3945;48.952;9.506;2022-07-17T09:49:54;98818.72;;;35.01;23.71
7802;BME280;3945;48.952;9.506;2022-07-17T09:52:21;98819.41;;;34.95;24.74
7802;BME280;3945;48.952;9.506;2022-07-17T09:54:48;98819.69;;;35.23;23.06
7802;BME280;3945;48.952;9.506;2022-07-17T09:57:18;98814.69;;;35.39;22.97
7802;BME280;3945;48.952;9.506;2022-07-17T09:59:45;98808.94;;;35.58;21.79
7802;BME280;3945;48.952;9.506;2022-07-17T10:02:12;98806.19;;;35.66;23.61
7802;BME280;3945;48.952;9.506;2022-07-17T10:04:39;98804.69;;;35.75;22.29
7802;BME280;3945;48.952;9.506;2022-07-17T10:07:05;98807.13;;;35.80;23.35
7802;BME280;3945;48.952;9.506;2022-07-17T10:09:33;98813.03;;;35.82;23.29
7802;BME280;3945;48.952;9.506;2022-07-17T10:12:00;98804.06;;;36.10;23.46
7802;BME280;3945;48.952;9.506;2022-07-17T10:14:28;98798.16;;;36.08;23.74
7802;BME280;3945;48.952;9.506;2022-07-17T10:17:05;98789.56;;;36.34;22.12
7802;BME280;3945;48.952;9.506;2022-07-17T10:19:31;98793.84;;;36.18;22.76
7802;BME280;3945;48.952;9.506;2022-07-17T10:21:59;98793.06;;;36.24;24.23
7802;BME280;3945;48.952;9.506;2022-07-17T10:24:26;98795.09;;;36.34;23.69
7802;BME280;3945;48.952;9.506;2022-07-17T10:26:53;98797.56;;;35.74;22.06
7802;BME280;3945;48.952;9.506;2022-07-17T10:29:31;98792.84;;;35.78;23.28
7802;BME280;3945;48.952;9.506;2022-07-17T10:31:59;98785.06;;;36.05;22.26
7802;BME280;3945;48.952;9.506;2022-07-17T10:34:38;98787.84;;;36.12;21.81
7802;BME280;3945;48.952;9.506;2022-07-17T10:37:18;98793.31;;;35.91;21.50
7802;BME280;3945;48.952;9.506;2022-07-17T10:42:36;98787.13;;;35.57;21.38
7802;BME280;3945;48.952;9.506;2022-07-17T10:45:08;98796.94;;;35.44;22.74
7802;BME280;3945;48.952;9.506;2022-07-17T10:47:49;98788.38;;;35.67;21.71
7802;BME280;3945;48.952;9.506;2022-07-17T10:50:16;98785.41;;;35.96;21.53
7802;BME280;3945;48.952;9.506;2022-07-17T10:52:43;98787.84;;;36.12;20.40
7802;BME280;3945;48.952;9.506;2022-07-17T10:55:19;98782.97;;;35.84;21.37
7802;BME280;3945;48.952;9.506;2022-07-17T10:57:46;98783.63;;;35.67;21.82
7802;BME280;3945;48.952;9.506;2022-07-17T11:00:15;98775.66;;;35.55;22.36
7802;BME280;3945;48.952;9.506;2022-07-17T11:02:41;98777.25;;;35.59;22.92
7802;BME280;3945;48.952;9.506;2022-07-17T11:05:08;98786.53;;;35.30;22.67
7802;BME280;3945;48.952;9.506;2022-07-17T11:07:34;98776.53;;;35.18;22.47
7802;BME280;3945;48.952;9.506;2022-07-17T11:10:01;98774.03;;;35.03;22.74
7802;BME280;3945;48.952;9.506;2022-07-17T11:12:30;98774.34;;;35.38;22.55
7802;BME280;3945;48.952;9.506;2022-07-17T11:15:00;98766.72;;;35.79;23.69
7802;BME280;3945;48.952;9.506;2022-07-17T11:17:28;98756.91;;;36.03;23.66
7802;BME280;3945;48.952;9.506;2022-07-17T11:19:57;98764.44;;;35.99;24.13
7802;BME280;3945;48.952;9.506;2022-07-17T11:22:24;98758.09;;;35.98;22.72
7802;BME280;3945;48.952;9.506;2022-07-17T11:24:50;98755.59;;;35.72;22.51
7802;BME280;3945;48.952;9.506;2022-07-17T11:27:20;98757.28;;;35.87;22.37
7802;BME280;3945;48.952;9.506;2022-07-17T11:29:47;98756.94;;;36.10;22.61
7802;BME280;3945;48.952;9.506;2022-07-17T11:32:14;98749.13;;;36.23;22.31
7802;BME280;3945;48.952;9.506;2022-07-17T11:34:42;98750.72;;;36.34;21.47
7802;BME280;3945;48.952;9.506;2022-07-17T11:37:08;98744.38;;;36.34;23.15
7802;BME280;3945;48.952;9.506;2022-07-17T11:39:38;98751.97;;;36.55;24.28
7802;BME280;3945;48.952;9.506;2022-07-17T11:42:04;98746.38;;;36.41;21.69
7802;BME280;3945;48.952;9.506;2022-07-17T11:44:34;98748.41;;;36.54;22.37
7802;BME280;3945;48.952;9.506;2022-07-17T11:47:01;98745.25;;;36.63;22.11
7802;BME280;3945;48.952;9.506;2022-07-17T11:49:28;98732.22;;;36.88;22.57
7802;BME280;3945;48.952;9.506;2022-07-17T11:51:56;98740.13;;;36.83;21.02
7802;BME280;3945;48.952;9.506;2022-07-17T11:54:23;98735.38;;;36.65;20.63
7802;BME280;3945;48.952;9.506;2022-07-17T11:56:51;98742.41;;;36.34;21.11
7802;BME280;3945;48.952;9.506;2022-07-17T11:59:23;98739.97;;;36.19;20.85
7802;BME280;3945;48.952;9.506;2022-07-17T12:01:49;98744.97;;;35.88;21.59
7802;BME280;3945;48.952;9.506;2022-07-17T12:04:17;98740.38;;;35.48;21.52
7802;BME280;3945;48.952;9.506;2022-07-17T12:06:44;98742.78;;;35.53;21.79
7802;BME280;3945;48.952;9.506;2022-07-17T12:09:12;98743.63;;;35.61;22.41
7802;BME280;3945;48.952;9.506;2022-07-17T12:11:45;98724.81;;;35.91;22.83
7802;BME280;3945;48.952;9.506;2022-07-17T12:14:12;98732.00;;;36.17;21.18
7802;BME280;3945;48.952;9.506;2022-07-17T12:16:38;98734.91;;;36.49;21.63
7802;BME280;3945;48.952;9.506;2022-07-17T12:19:06;98736.53;;;36.64;20.21
7802;BME280;3945;48.952;9.506;2022-07-17T12:21:44;98732.63;;;36.80;20.85
7802;BME280;3945;48.952;9.506;2022-07-17T12:24:18;98730.63;;;36.76;19.98
7802;BME280;3945;48.952;9.506;2022-07-17T12:26:44;98743.31;;;36.85;20.91
7802;BME280;3945;48.952;9.506;2022-07-17T12:29:11;98738.09;;;36.62;19.77
7802;BME280;3945;48.952;9.506;2022-07-17T12:31:37;98733.34;;;36.62;19.80
7802;BME280;3945;48.952;9.506;2022-07-17T12:34:05;98737.69;;;36.60;19.71
7802;BME280;3945;48.952;9.506;2022-07-17T12:36:31;98740.44;;;36.35;19.68
7802;BME280;3945;48.952;9.506;2022-07-17T12:38:58;98740.25;;;35.96;19.79
7802;BME280;3945;48.952;9.506;2022-07-17T12:41:25;98743.63;;;35.57;20.34
7802;BME280;3945;48.952;9.506;2022-07-17T12:43:52;98741.09;;;35.38;20.24
7802;BME280;3945;48.952;9.506;2022-07-17T12:46:18;98733.22;;;35.40;21.94
7802;BME280;3945;48.952;9.506;2022-07-17T12:48:44;98732.84;;;35.45;20.03
7802;BME280;3945;48.952;9.506;2022-07-17T12:51:11;98725.41;;;35.60;20.08
7802;BME280;3945;48.952;9.506;2022-07-17T12:53:38;98720.28;;;35.62;20.90
7802;BME280;3945;48.952;9.506;2022-07-17T12:56:05;98722.91;;;35.37;20.93
7802;BME280;3945;48.952;9.506;2022-07-17T12:58:33;98722.19;;;35.47;20.77
7802;BME280;3945;48.952;9.506;2022-07-17T13:01:00;98721.84;;;35.56;21.61
7802;BME280;3945;48.952;9.506;2022-07-17T13:03:26;98719.53;;;35.65;19.21
7802;BME280;3945;48.952;9.506;2022-07-17T13:05:53;98729.09;;;35.78;21.34
7802;BME280;3945;48.952;9.506;2022-07-17T13:08:19;98721.75;;;35.45;20.63
7802;BME280;3945;48.952;9.506;2022-07-17T13:10:45;98729.88;;;35.20;21.46
7802;BME280;3945;48.952;9.506;2022-07-17T13:13:12;98720.03;;;35.23;22.62
7802;BME280;3945;48.952;9.506;2022-07-17T13:15:39;98720.06;;;35.30;22.50
7802;BME280;3945;48.952;9.506;2022-07-17T13:18:06;98718.19;;;35.41;22.76
7802;BME280;3945;48.952;9.506;2022-07-17T13:20:32;98715.88;;;35.50;22.68
7802;BME280;3945;48.952;9.506;2022-07-17T13:22:59;98721.50;;;35.65;22.10
7802;BME280;3945;48.952;9.506;2022-07-17T13:25:25;98717.53;;;35.66;21.60